createdAt,value
2022-11-04T00:00:49.489Z,10.000
2022-11-04T00:01:37.531Z,10.000
2022-11-04T00:02:36.128Z,9.900
2022-11-04T00:03:53.552Z,9.900
2022-11-04T00:05:49.388Z,9.900
2022-11-04T00:06:28.162Z,9.900
2022-11-04T00:07:56.039Z,9.900
2022-11-04T00:10:17.689Z,9.900
2022-11-04T00:10:38.575Z,9.900
2022-11-04T00:10:42.972Z,9.900
2022-11-04T00:12:33.519Z,9.900
2022-11-04T00:13:32.342Z,9.900
2022-11-04T00:14:26.872Z,9.900
2022-11-04T00:15:50.643Z,9.800
2022-11-04T00:16:40.773Z,9.800
2022-11-04T00:17:32.219Z,9.800
2022-11-04T00:19:45.772Z,9.700
2022-11-04T00:21:28.747Z,9.700
2022-11-04T00:22:21.878Z,9.600
2022-11-04T00:23:27.119Z,9.600
2022-11-04T00:24:33.287Z,9.600
2022-11-04T00:25:20.376Z,9.600
2022-11-04T00:26:24.313Z,9.600
2022-11-04T00:27:43.510Z,9.600
2022-11-04T00:28:29.266Z,9.600
2022-11-04T00:29:28.490Z,9.550
2022-11-04T00:30:43.120Z,9.500
2022-11-04T00:31:36.500Z,9.500
2022-11-04T00:32:26.274Z,9.500
2022-11-04T00:33:29.800Z,9.500
2022-11-04T00:34:25.528Z,9.500
2022-11-04T00:36:29.907Z,9.500
2022-11-04T00:37:27.972Z,9.500
2022-11-04T00:38:41.038Z,9.500
2022-11-04T00:39:26.633Z,9.500
2022-11-04T00:40:31.534Z,9.500
2022-11-04T00:41:28.471Z,9.500
2022-11-04T00:42:34.543Z,9.500
2022-11-04T00:43:25.699Z,9.500
2022-11-04T00:44:32.155Z,9.500
2022-11-04T00:45:19.966Z,9.500
2022-11-04T00:46:30.322Z,9.500
2022-11-04T00:47:34.744Z,9.500
2022-11-04T00:48:30.456Z,9.400
2022-11-04T00:49:22.754Z,9.400
2022-11-04T00:50:24.107Z,9.400
2022-11-04T00:51:22.432Z,9.400
2022-11-04T00:52:26.769Z,9.450
2022-11-04T00:53:32.485Z,9.500
2022-11-04T00:54:23.477Z,9.400
2022-11-04T00:55:32.404Z,9.400
2022-11-04T00:56:28.002Z,9.400
2022-11-04T00:57:41.997Z,9.400
2022-11-04T00:58:40.625Z,9.400
2022-11-04T00:59:32.565Z,9.400
2022-11-04T01:00:22.680Z,9.400
2022-11-04T01:02:21.623Z,9.400
2022-11-04T01:03:38.716Z,9.300
2022-11-04T01:04:24.504Z,9.300
2022-11-04T01:05:39.583Z,9.300
2022-11-04T01:06:36.140Z,9.300
2022-11-04T01:07:29.912Z,9.300
2022-11-04T01:08:25.505Z,9.300
2022-11-04T01:09:37.681Z,9.200
2022-11-04T01:10:50.861Z,9.200
2022-11-04T01:12:21.727Z,9.200
2022-11-04T01:13:36.610Z,9.200
2022-11-04T01:14:29.856Z,9.200
2022-11-04T01:15:23.463Z,9.200
2022-11-04T01:16:44.899Z,9.200
2022-11-04T01:17:53.073Z,9.200
2022-11-04T01:18:32.594Z,9.100
2022-11-04T01:19:23.578Z,9.100
2022-11-04T01:21:34.287Z,9.100
2022-11-04T01:22:27.141Z,9.100
2022-11-04T01:23:50.049Z,9.100
2022-11-04T01:25:07.093Z,9.100
2022-11-04T01:26:32.239Z,9.000
2022-11-04T01:28:39.358Z,9.000
2022-11-04T01:29:30.147Z,9.000
2022-11-04T01:30:24.719Z,9.000
2022-11-04T01:32:43.281Z,8.900
2022-11-04T01:33:33.748Z,8.900
2022-11-04T01:35:46.001Z,8.900
2022-11-04T01:36:27.322Z,8.900
2022-11-04T01:37:27.993Z,8.900
2022-11-04T01:38:19.769Z,8.900
2022-11-04T01:39:47.223Z,8.900
2022-11-04T01:40:38.434Z,8.800
2022-11-04T01:41:23.036Z,8.800
2022-11-04T01:42:21.939Z,8.800
2022-11-04T01:43:37.950Z,8.800
2022-11-04T01:44:27.397Z,8.800
2022-11-04T01:45:24.001Z,8.800
2022-11-04T01:46:48.869Z,8.800
2022-11-04T01:47:22.099Z,8.800
2022-11-04T01:48:22.757Z,8.800
2022-11-04T01:50:21.024Z,8.800
2022-11-04T01:51:30.268Z,8.800
2022-11-04T01:52:28.877Z,8.800
2022-11-04T01:53:21.111Z,8.750
2022-11-04T01:56:32.853Z,8.700
2022-11-04T01:57:25.961Z,8.700
2022-11-04T01:58:36.024Z,8.700
2022-11-04T01:59:23.210Z,8.700
2022-11-04T02:00:37.270Z,8.650
2022-11-04T02:38:39.098Z,8.200
2022-11-04T02:39:51.187Z,8.100
2022-11-04T02:40:47.534Z,8.100
2022-11-04T02:41:37.717Z,8.100
2022-11-04T02:42:31.022Z,8.100
2022-11-04T02:44:33.747Z,8.100
2022-11-04T02:45:28.297Z,8.100
2022-11-04T02:46:22.405Z,8.200
2022-11-04T02:47:47.256Z,8.200
2022-11-04T02:48:44.618Z,8.200
2022-11-04T02:50:26.072Z,8.100
2022-11-04T02:51:41.093Z,8.100
2022-11-04T02:52:32.631Z,8.100
2022-11-04T02:53:27.124Z,8.100
2022-11-04T02:54:51.017Z,8.100
2022-11-04T02:55:29.885Z,8.100
2022-11-04T02:56:34.954Z,8.100
2022-11-04T02:57:30.250Z,8.100
2022-11-04T02:58:23.771Z,8.100
2022-11-04T02:59:39.501Z,8.100
2022-11-04T03:00:20.855Z,8.100
2022-11-04T03:01:22.800Z,8.100
2022-11-04T03:02:49.833Z,8.100
2022-11-04T03:04:24.305Z,8.100
2022-11-04T03:05:27.482Z,8.100
2022-11-04T03:06:25.532Z,8.100
2022-11-04T03:07:29.564Z,8.100
2022-11-04T03:08:28.657Z,8.100
2022-11-04T03:09:56.806Z,8.100
2022-11-04T03:11:25.294Z,8.100
2022-11-04T03:13:28.472Z,8.100
2022-11-04T03:14:40.093Z,8.100
2022-11-04T03:15:23.932Z,8.100
2022-11-04T03:16:23.336Z,8.100
2022-11-04T03:17:22.562Z,8.100
2022-11-04T03:18:28.880Z,8.100
2022-11-04T03:19:35.631Z,8.100
2022-11-04T03:20:31.016Z,8.100
2022-11-04T03:21:24.800Z,8.100
2022-11-04T03:22:25.183Z,8.100
2022-11-04T03:23:27.357Z,8.100
2022-11-04T03:24:20.309Z,8.100
2022-11-04T03:25:49.536Z,8.100
2022-11-04T03:26:41.447Z,8.100
2022-11-04T03:27:35.986Z,8.100
2022-11-04T03:28:23.781Z,8.100
2022-11-04T03:29:32.271Z,8.100
2022-11-04T03:30:31.930Z,8.100
2022-11-04T03:31:29.394Z,8.100
2022-11-04T03:32:35.567Z,8.100
2022-11-04T03:33:21.039Z,8.100
2022-11-04T03:34:29.113Z,8.100
2022-11-04T03:35:33.225Z,8.100
2022-11-04T03:36:23.203Z,8.100
2022-11-04T03:37:37.957Z,8.100
2022-11-04T03:38:31.446Z,8.100
2022-11-04T03:39:23.873Z,8.150
2022-11-04T03:40:26.088Z,8.200
2022-11-04T03:41:46.661Z,8.200
2022-11-04T03:42:49.627Z,8.200
2022-11-04T03:44:39.289Z,8.200
2022-11-04T03:45:21.444Z,8.200
2022-11-04T03:46:27.433Z,8.200
2022-11-04T03:47:52.478Z,8.200
2022-11-04T03:48:48.539Z,8.200
2022-11-04T03:49:43.634Z,8.200
2022-11-04T03:50:31.709Z,8.200
2022-11-04T03:51:29.143Z,8.200
2022-11-04T03:53:33.010Z,8.300
2022-11-04T03:54:22.690Z,8.300
2022-11-04T03:55:54.173Z,8.300
2022-11-04T03:56:42.924Z,8.300
2022-11-04T03:57:36.729Z,8.300
2022-11-04T03:59:20.238Z,8.300
2022-11-04T04:00:34.877Z,8.300
2022-11-04T04:01:27.316Z,8.300
2022-11-04T04:02:20.511Z,8.300
2022-11-04T04:03:38.869Z,8.300
2022-11-04T04:04:42.768Z,8.300
2022-11-04T04:05:33.425Z,8.300
2022-11-04T04:06:27.981Z,8.400
2022-11-04T04:07:37.086Z,8.400
2022-11-04T04:08:32.115Z,8.400
2022-11-04T04:09:22.900Z,8.400
2022-11-04T04:10:52.300Z,8.400
2022-11-04T04:11:45.346Z,8.400
2022-11-04T04:12:32.521Z,8.400
2022-11-04T04:13:22.311Z,8.400
2022-11-04T04:14:21.405Z,8.400
2022-11-04T04:15:34.274Z,8.400
2022-11-04T04:16:29.377Z,8.400
2022-11-04T04:17:20.267Z,8.400
2022-11-04T04:18:58.638Z,8.400
2022-11-04T04:19:26.897Z,8.400
2022-11-04T04:20:22.965Z,8.500
2022-11-04T04:21:25.523Z,8.500
2022-11-04T04:22:38.294Z,8.500
2022-11-04T04:23:32.709Z,8.500
2022-11-04T04:24:27.352Z,8.500
2022-11-04T04:25:31.798Z,8.500
2022-11-04T04:26:36.902Z,8.500
2022-11-04T04:27:24.798Z,8.500
2022-11-04T04:28:31.562Z,8.500
2022-11-04T04:29:25.788Z,8.500
2022-11-04T04:30:25.587Z,8.500
2022-11-04T04:31:28.304Z,8.500
2022-11-04T04:32:25.051Z,8.500
2022-11-04T04:33:43.767Z,8.500
2022-11-04T04:34:28.626Z,8.500
2022-11-04T04:35:35.837Z,8.500
2022-11-04T04:36:28.759Z,8.500
2022-11-04T04:38:21.596Z,8.500
2022-11-04T04:39:27.266Z,8.500
2022-11-04T04:40:49.129Z,8.500
2022-11-04T04:41:31.369Z,8.500
2022-11-04T04:42:35.244Z,8.500
2022-11-04T04:43:32.186Z,8.500
2022-11-04T04:44:27.320Z,8.500
2022-11-04T04:45:24.565Z,8.500
2022-11-04T04:46:33.683Z,8.500
2022-11-04T04:47:28.071Z,8.500
2022-11-04T04:48:35.534Z,8.500
2022-11-04T04:49:21.038Z,8.500
2022-11-04T04:50:37.891Z,8.500
2022-11-04T04:51:31.625Z,8.500
2022-11-04T04:52:21.469Z,8.500
2022-11-04T04:53:29.595Z,8.500
2022-11-04T04:54:26.221Z,8.500
2022-11-04T04:55:41.855Z,8.500
2022-11-04T04:56:26.006Z,8.500
2022-11-04T04:57:40.682Z,8.500
2022-11-04T04:58:22.455Z,8.500
2022-11-04T04:59:29.743Z,8.500
2022-11-04T05:00:37.575Z,8.500
2022-11-04T05:01:30.832Z,8.500
2022-11-04T05:02:28.428Z,8.500
2022-11-04T05:03:31.143Z,8.500
2022-11-04T05:04:28.852Z,8.500
2022-11-04T05:05:43.630Z,8.500
2022-11-04T05:06:34.780Z,8.500
2022-11-04T05:07:24.203Z,8.500
2022-11-04T05:09:31.903Z,8.500
2022-11-04T05:10:31.374Z,8.500
2022-11-04T05:11:49.513Z,8.500
2022-11-04T05:12:42.781Z,8.600
2022-11-04T05:13:35.778Z,8.600
2022-11-04T05:14:23.897Z,8.600
2022-11-04T05:15:21.855Z,8.600
2022-11-04T05:16:31.208Z,8.600
2022-11-04T05:17:24.188Z,8.600
2022-11-04T05:18:52.907Z,8.600
2022-11-04T05:19:46.607Z,8.600
2022-11-04T05:20:39.642Z,8.600
2022-11-04T05:21:32.643Z,8.600
2022-11-04T05:23:39.589Z,8.600
2022-11-04T05:24:28.242Z,8.600
2022-11-04T05:25:22.520Z,8.600
2022-11-04T05:26:21.175Z,8.600
2022-11-04T05:27:37.527Z,8.600
2022-11-04T05:28:31.229Z,8.600
2022-11-04T05:29:27.971Z,8.600
2022-11-04T05:30:21.319Z,8.600
2022-11-04T05:31:32.531Z,8.600
2022-11-04T05:33:13.726Z,8.600
2022-11-04T05:34:49.228Z,8.600
2022-11-04T05:36:19.657Z,8.700
2022-11-04T05:37:27.674Z,8.700
2022-11-04T05:38:31.462Z,8.700
2022-11-04T05:39:29.386Z,8.700
2022-11-04T05:40:22.317Z,8.700
2022-11-04T05:41:51.640Z,8.700
2022-11-04T05:43:25.593Z,8.700
2022-11-04T05:44:33.689Z,8.700
2022-11-04T05:45:26.265Z,8.700
2022-11-04T05:46:33.647Z,8.700
2022-11-04T05:47:30.161Z,8.700
2022-11-04T05:48:56.248Z,8.700
2022-11-04T05:50:30.032Z,8.700
2022-11-04T05:51:33.667Z,8.700
2022-11-04T05:52:29.142Z,8.700
2022-11-04T05:53:23.362Z,8.700
2022-11-04T05:54:21.254Z,8.700
2022-11-04T05:55:23.082Z,8.700
2022-11-04T05:56:43.663Z,8.750
2022-11-04T05:57:29.922Z,8.800
2022-11-04T05:58:42.522Z,8.800
2022-11-04T05:59:33.680Z,8.800
2022-11-04T06:00:27.034Z,8.800
2022-11-04T06:01:24.075Z,8.800
2022-11-04T06:02:30.752Z,8.800
2022-11-04T06:03:20.599Z,8.750
2022-11-04T06:04:33.489Z,8.700
2022-11-04T06:05:46.989Z,8.700
2022-11-04T06:06:30.676Z,8.700
2022-11-04T06:07:31.241Z,8.700
2022-11-04T06:08:22.925Z,8.700
2022-11-04T06:09:35.658Z,8.700
2022-11-04T06:11:23.314Z,8.700
2022-11-04T06:13:40.459Z,8.700
2022-11-04T06:14:34.132Z,8.700
2022-11-04T06:15:27.671Z,8.700
2022-11-04T06:16:35.002Z,8.700
2022-11-04T06:17:29.863Z,8.700
2022-11-04T06:18:26.025Z,8.700
2022-11-04T06:19:24.883Z,8.700
2022-11-04T06:20:43.925Z,8.700
2022-11-04T06:21:38.411Z,8.700
2022-11-04T06:22:29.052Z,8.700
2022-11-04T06:23:30.221Z,8.700
2022-11-04T06:25:44.071Z,8.700
2022-11-04T06:26:29.878Z,8.700
2022-11-04T06:27:48.811Z,8.700
2022-11-04T06:28:24.932Z,8.700
2022-11-04T06:29:37.542Z,8.700
2022-11-04T06:30:24.746Z,8.800
2022-11-04T06:31:39.684Z,8.800
2022-11-04T06:32:35.307Z,8.800
2022-11-04T06:33:36.323Z,8.800
2022-11-04T06:34:28.201Z,8.800
2022-11-04T06:35:42.570Z,8.800
2022-11-04T06:36:47.454Z,8.800
2022-11-04T06:37:30.835Z,8.800
2022-11-04T06:38:45.902Z,8.800
2022-11-04T06:40:30.920Z,8.800
2022-11-04T06:41:21.385Z,8.800
2022-11-04T06:42:50.435Z,8.800
2022-11-04T06:43:43.247Z,8.800
2022-11-04T06:44:29.175Z,8.800
2022-11-04T06:45:28.901Z,8.800
2022-11-04T06:47:33.716Z,8.900
2022-11-04T06:48:25.108Z,8.900
2022-11-04T06:49:53.762Z,8.900
2022-11-04T06:50:47.850Z,8.900
2022-11-04T06:52:32.006Z,8.900
2022-11-04T06:53:25.406Z,8.900
2022-11-04T06:54:35.339Z,9.000
2022-11-04T06:56:23.435Z,9.000
2022-11-04T06:57:37.296Z,9.000
2022-11-04T06:58:34.878Z,9.000
2022-11-04T06:59:23.246Z,9.000
2022-11-04T07:00:35.598Z,9.000
2022-11-04T07:01:24.131Z,9.000
2022-11-04T07:02:31.206Z,9.100
2022-11-04T07:03:24.148Z,9.100
2022-11-04T07:04:55.834Z,9.100
2022-11-04T07:05:01.027Z,9.100
2022-11-04T07:07:34.728Z,9.100
2022-11-04T07:08:27.832Z,9.100
2022-11-04T07:09:37.981Z,9.100
2022-11-04T07:10:23.374Z,9.100
2022-11-04T07:11:21.828Z,9.100
2022-11-04T07:12:42.829Z,9.100
2022-11-04T07:13:25.530Z,9.200
2022-11-04T07:14:54.588Z,9.200
2022-11-04T07:16:24.016Z,9.200
2022-11-04T07:17:25.769Z,9.200
2022-11-04T07:18:25.520Z,9.200
2022-11-04T07:19:30.563Z,9.200
2022-11-04T07:20:31.883Z,9.200
2022-11-04T07:21:41.336Z,9.200
2022-11-04T07:22:36.267Z,9.200
2022-11-04T07:23:27.208Z,9.300
2022-11-04T07:24:24.989Z,9.300
2022-11-04T07:25:29.449Z,9.300
2022-11-04T07:26:22.327Z,9.300
2022-11-04T07:27:34.971Z,9.300
2022-11-04T07:28:20.967Z,9.300
2022-11-04T07:29:40.225Z,9.300
2022-11-04T07:30:28.018Z,9.300
2022-11-04T07:31:28.163Z,9.300
2022-11-04T07:32:33.105Z,9.300
2022-11-04T07:33:27.747Z,9.300
2022-11-04T07:34:38.581Z,9.300
2022-11-04T07:35:23.985Z,9.300
2022-11-04T07:36:35.669Z,9.300
2022-11-04T07:37:38.473Z,9.300
2022-11-04T07:38:30.470Z,9.400
2022-11-04T07:39:21.491Z,9.400
2022-11-04T07:40:30.947Z,9.400
2022-11-04T07:41:24.300Z,9.400
2022-11-04T07:42:26.979Z,9.400
2022-11-04T07:43:48.187Z,9.400
2022-11-04T07:44:43.221Z,9.400
2022-11-04T07:45:36.037Z,9.500
2022-11-04T07:46:21.948Z,9.500
2022-11-04T07:47:35.347Z,9.500
2022-11-04T07:48:29.036Z,9.500
2022-11-04T07:49:20.324Z,9.500
2022-11-04T07:50:52.830Z,9.500
2022-11-04T07:51:46.054Z,9.500
2022-11-04T07:52:24.722Z,9.600
2022-11-04T07:53:28.179Z,9.600
2022-11-04T07:54:23.238Z,9.600
2022-11-04T07:55:38.996Z,9.600
2022-11-04T07:56:24.255Z,9.600
2022-11-04T07:57:19.809Z,9.600
2022-11-04T07:58:24.966Z,9.600
2022-11-04T07:59:42.605Z,9.600
2022-11-04T08:01:30.042Z,9.600
2022-11-04T08:02:25.947Z,9.600
2022-11-04T08:03:31.265Z,9.700
2022-11-04T08:04:20.929Z,9.700
2022-11-04T08:05:46.592Z,9.700
2022-11-04T08:07:04.147Z,9.700
2022-11-04T08:14:06.188Z,9.700
2022-11-04T08:15:25.234Z,9.700
2022-11-04T08:16:33.931Z,9.700
2022-11-04T08:17:22.844Z,9.700
2022-11-04T08:18:32.553Z,9.700
2022-11-04T08:20:51.592Z,9.700
2022-11-04T08:21:35.543Z,9.800
2022-11-04T08:23:35.703Z,9.800
2022-11-04T08:24:28.427Z,9.800
2022-11-04T08:28:04.063Z,9.800
2022-11-04T08:28:41.450Z,9.800
2022-11-04T08:29:33.583Z,9.800
2022-11-04T08:31:29.795Z,9.800
2022-11-04T08:32:27.073Z,9.800
2022-11-04T08:33:22.151Z,9.800
2022-11-04T08:34:23.458Z,9.800
2022-11-04T08:35:24.591Z,9.800
2022-11-04T08:36:31.139Z,9.800
2022-11-04T08:37:23.437Z,9.800
2022-11-04T08:38:30.861Z,9.800
2022-11-04T08:39:25.672Z,9.800
2022-11-04T08:40:27.417Z,9.800
2022-11-04T08:41:28.106Z,9.800
2022-11-04T08:42:21.501Z,9.800
2022-11-04T08:43:27.609Z,9.800
2022-11-04T08:44:24.741Z,9.800
2022-11-04T08:46:00.023Z,9.800
2022-11-04T08:49:24.209Z,9.800
2022-11-04T08:50:40.174Z,9.800
2022-11-04T08:51:23.249Z,9.800
2022-11-04T08:52:43.404Z,9.800
2022-11-04T08:53:45.635Z,9.800
2022-11-04T08:55:22.584Z,9.800
2022-11-04T08:56:28.651Z,9.800
2022-11-04T08:57:26.361Z,9.800
2022-11-04T08:58:30.342Z,9.800
2022-11-04T08:59:48.172Z,9.800
2022-11-04T09:00:31.461Z,9.800
2022-11-04T09:01:39.174Z,9.800
2022-11-04T09:02:23.923Z,9.800
2022-11-04T09:03:37.504Z,9.800
2022-11-04T09:04:25.571Z,9.800
2022-11-04T09:05:21.647Z,9.800
2022-11-04T09:06:35.661Z,9.800
2022-11-04T09:07:50.732Z,9.800
2022-11-04T09:08:39.632Z,9.800
2022-11-04T09:09:25.747Z,9.800
2022-11-04T09:10:24.850Z,9.800
2022-11-04T09:11:24.766Z,9.800
2022-11-04T09:12:21.947Z,9.800
2022-11-04T09:13:52.624Z,9.800
2022-11-04T09:14:50.439Z,9.800
2022-11-04T09:15:43.927Z,9.800
2022-11-04T09:17:28.684Z,9.800
2022-11-04T09:18:19.522Z,9.800
2022-11-04T09:19:27.550Z,9.800
2022-11-04T09:20:22.398Z,9.800
2022-11-04T09:21:53.471Z,9.800
2022-11-04T09:22:24.716Z,9.800
2022-11-04T09:23:31.344Z,9.800
2022-11-04T09:24:30.649Z,9.800
2022-11-04T09:25:30.550Z,9.800
2022-11-04T09:26:30.423Z,9.800
2022-11-04T09:27:25.051Z,9.800
2022-11-04T09:28:27.281Z,9.750
2022-11-04T09:29:41.975Z,9.700
2022-11-04T09:30:34.915Z,9.700
2022-11-04T09:31:23.052Z,9.700
2022-11-04T09:32:30.622Z,9.700
2022-11-04T09:33:23.265Z,9.700
2022-11-04T09:34:27.701Z,9.700
2022-11-04T09:35:20.171Z,9.700
2022-11-04T09:36:52.098Z,9.700
2022-11-04T09:37:40.509Z,9.700
2022-11-04T09:38:28.466Z,9.700
2022-11-04T09:39:25.513Z,9.700
2022-11-04T09:40:25.041Z,9.700
2022-11-04T09:41:51.160Z,9.700
2022-11-04T09:42:25.076Z,9.700
2022-11-04T09:43:53.411Z,9.700
2022-11-04T09:44:59.802Z,9.700
2022-11-04T09:45:27.053Z,9.700
2022-11-04T09:46:40.010Z,9.700
2022-11-04T09:47:33.524Z,9.700
2022-11-04T09:48:27.564Z,9.700
2022-11-04T09:49:23.058Z,9.700
2022-11-04T09:50:24.558Z,9.700
2022-11-04T09:52:10.293Z,9.700
2022-11-04T09:52:31.410Z,9.700
2022-11-04T09:53:41.977Z,9.700
2022-11-04T09:54:35.097Z,9.700
2022-11-04T09:55:29.998Z,9.700
2022-11-04T09:56:23.557Z,9.700
2022-11-04T09:57:32.344Z,9.700
2022-11-04T09:58:49.407Z,9.700
2022-11-04T09:59:34.780Z,9.700
2022-11-04T10:00:45.871Z,9.700
2022-11-04T10:01:46.277Z,9.700
2022-11-04T10:02:32.645Z,9.700
2022-11-04T10:03:28.264Z,9.700
2022-11-04T10:04:32.799Z,9.700
2022-11-04T10:05:24.238Z,9.700
2022-11-04T10:06:36.288Z,9.750
2022-11-04T10:07:22.981Z,9.700
2022-11-04T10:08:38.212Z,9.700
2022-11-04T10:09:36.699Z,9.700
2022-11-04T10:10:36.981Z,9.700
2022-11-04T10:11:22.195Z,9.700
2022-11-04T10:12:26.373Z,9.700
2022-11-04T10:13:29.399Z,9.700
2022-11-04T10:14:24.841Z,9.700
2022-11-04T10:15:46.644Z,9.800
2022-11-04T10:16:41.472Z,9.800
2022-11-04T10:17:36.085Z,9.800
2022-11-04T10:18:26.778Z,9.800
2022-11-04T10:19:32.838Z,9.800
2022-11-04T10:20:22.554Z,9.800
2022-11-04T10:21:31.262Z,9.800
2022-11-04T10:22:53.092Z,9.800
2022-11-04T10:23:47.692Z,9.800
2022-11-04T10:24:29.121Z,9.900
2022-11-04T10:26:21.672Z,9.900
2022-11-04T10:27:28.630Z,9.900
2022-11-04T10:28:22.405Z,9.900
2022-11-04T10:29:55.706Z,9.900
2022-11-04T10:30:35.479Z,10.000
2022-11-04T10:31:47.815Z,10.000
2022-11-04T10:33:26.680Z,10.000
2022-11-04T10:34:32.064Z,10.000
2022-11-04T10:35:25.304Z,10.000
2022-11-04T10:36:20.499Z,10.000
2022-11-04T10:37:49.224Z,10.100
2022-11-04T10:38:45.196Z,10.100
2022-11-04T10:40:32.136Z,10.100
2022-11-04T10:41:24.259Z,10.100
2022-11-04T10:42:31.205Z,10.100
2022-11-04T10:43:25.777Z,10.100
2022-11-04T10:44:59.973Z,10.100
2022-11-04T10:45:46.226Z,10.100
2022-11-04T10:46:37.173Z,10.200
2022-11-04T10:47:36.288Z,10.200
2022-11-04T10:49:21.794Z,10.200
2022-11-04T10:50:29.503Z,10.200
2022-11-04T10:52:02.043Z,10.200
2022-11-04T10:52:26.013Z,10.200
2022-11-04T10:53:37.990Z,10.200
2022-11-04T10:54:22.935Z,10.200
2022-11-04T10:55:31.281Z,10.200
2022-11-04T10:56:26.061Z,10.200
2022-11-04T10:57:29.877Z,10.300
2022-11-04T10:58:22.176Z,10.300
2022-11-04T10:59:21.236Z,10.300
2022-11-04T11:00:39.184Z,10.300
2022-11-04T11:01:27.113Z,10.400
2022-11-04T11:02:25.889Z,10.400
2022-11-04T11:03:27.152Z,10.400
2022-11-04T11:04:22.573Z,10.400
2022-11-04T11:05:22.439Z,10.400
2022-11-04T11:06:36.642Z,10.400
2022-11-04T11:07:45.517Z,10.400
2022-11-04T11:08:28.039Z,10.400
2022-11-04T11:09:26.672Z,10.500
2022-11-04T11:10:36.212Z,10.500
2022-11-04T11:11:26.360Z,10.500
2022-11-04T11:12:50.945Z,10.500
2022-11-04T11:13:23.182Z,10.500
2022-11-04T11:14:44.006Z,10.550
2022-11-04T11:15:31.361Z,10.600
2022-11-04T11:16:23.545Z,10.600
2022-11-04T11:17:36.967Z,10.600
2022-11-04T11:18:34.437Z,10.600
2022-11-04T11:20:25.435Z,10.600
2022-11-04T11:21:20.250Z,10.600
2022-11-04T11:22:36.782Z,10.700
2022-11-04T11:24:36.481Z,10.700
2022-11-04T11:25:30.594Z,10.600
2022-11-04T11:26:30.509Z,10.600
2022-11-04T11:28:23.965Z,10.600
2022-11-04T11:29:36.837Z,10.600
2022-11-04T11:30:23.917Z,10.600
2022-11-04T11:31:20.721Z,10.600
2022-11-04T11:32:37.067Z,10.600
2022-11-04T11:33:34.624Z,10.600
2022-11-04T11:34:24.453Z,10.600
2022-11-04T11:35:28.068Z,10.600
2022-11-04T11:36:23.478Z,10.600
2022-11-04T11:37:27.066Z,10.600
2022-11-04T11:38:37.839Z,10.600
2022-11-04T11:39:33.016Z,10.500
2022-11-04T11:41:25.628Z,10.500
2022-11-04T11:42:21.582Z,10.600
2022-11-04T11:43:33.587Z,10.600
2022-11-04T11:44:24.385Z,10.600
2022-11-04T11:45:35.078Z,10.600
2022-11-04T11:46:31.135Z,10.600
2022-11-04T11:47:28.396Z,10.600
2022-11-04T11:48:23.230Z,10.600
2022-11-04T11:49:28.268Z,10.600
2022-11-04T11:50:30.041Z,10.700
2022-11-04T11:51:31.800Z,10.700
2022-11-04T11:52:19.983Z,10.700
2022-11-04T11:53:30.352Z,10.800
2022-11-04T11:54:27.835Z,10.800
2022-11-04T11:55:21.140Z,10.800
2022-11-04T11:56:45.861Z,10.900
2022-11-04T11:57:26.304Z,10.900
2022-11-04T12:00:52.079Z,10.900
2022-11-04T12:01:03.210Z,10.900
2022-11-04T12:01:25.845Z,11.000
2022-11-04T12:02:26.153Z,11.000
2022-11-04T12:06:21.877Z,11.000
2022-11-04T12:06:28.776Z,11.000
2022-11-04T12:09:18.960Z,11.000
2022-11-04T12:09:28.733Z,11.000
2022-11-04T12:10:48.672Z,11.000
2022-11-04T12:11:33.674Z,11.000
2022-11-04T12:14:20.115Z,10.900
2022-11-04T12:15:30.388Z,10.900
2022-11-04T12:16:23.345Z,10.900
2022-11-04T12:18:29.737Z,10.900
2022-11-04T12:19:24.535Z,10.900
2022-11-04T12:20:23.629Z,10.900
2022-11-04T12:21:27.037Z,10.900
2022-11-04T12:22:28.719Z,10.900
2022-11-04T12:23:21.109Z,10.900
2022-11-04T12:24:27.258Z,10.900
2022-11-04T12:25:29.708Z,10.900
2022-11-04T12:26:23.523Z,10.900
2022-11-04T12:27:27.986Z,11.000
2022-11-04T12:28:25.969Z,11.000
2022-11-04T12:29:24.287Z,11.000
2022-11-04T12:30:28.232Z,11.100
2022-11-04T12:31:33.285Z,11.100
2022-11-04T12:32:30.989Z,11.200
2022-11-04T12:33:27.880Z,11.200
2022-11-04T12:34:32.783Z,11.200
2022-11-04T12:35:26.719Z,11.300
2022-11-04T12:36:29.716Z,11.300
2022-11-04T12:37:24.571Z,11.300
2022-11-04T12:38:32.542Z,11.400
2022-11-04T12:39:21.531Z,11.400
2022-11-04T12:40:23.573Z,11.400
2022-11-04T12:41:47.116Z,11.500
2022-11-04T12:43:19.806Z,11.500
2022-11-04T12:44:21.722Z,11.400
2022-11-04T12:45:35.341Z,11.400
2022-11-04T12:46:23.956Z,11.400
2022-11-04T12:47:23.160Z,11.400
2022-11-04T12:48:34.725Z,11.400
2022-11-04T12:49:28.861Z,11.400
2022-11-04T12:51:21.086Z,11.300
2022-11-04T12:52:31.489Z,11.200
2022-11-04T12:53:27.076Z,11.150
2022-11-04T12:54:38.956Z,11.100
2022-11-04T12:55:33.310Z,11.100
2022-11-04T12:56:31.880Z,11.000
2022-11-04T12:57:23.837Z,11.000
2022-11-04T12:58:26.508Z,11.000
2022-11-04T12:59:25.827Z,10.900
2022-11-04T13:00:27.199Z,10.900
2022-11-04T13:01:23.317Z,10.900
2022-11-04T13:02:39.302Z,10.900
2022-11-04T13:03:38.672Z,10.800
2022-11-04T13:05:21.197Z,10.800
2022-11-04T13:06:26.604Z,10.800
2022-11-04T13:07:21.734Z,10.800
2022-11-04T13:08:24.291Z,10.800
2022-11-04T13:09:33.121Z,10.800
2022-11-04T13:10:29.232Z,10.800
2022-11-04T13:12:20.879Z,10.800
2022-11-04T13:13:23.573Z,10.800
2022-11-04T13:14:24.370Z,10.800
2022-11-04T13:15:24.465Z,10.800
2022-11-04T13:16:34.466Z,10.800
2022-11-04T13:17:33.885Z,10.800
2022-11-04T13:18:25.283Z,10.800
2022-11-04T13:19:21.243Z,10.800
2022-11-04T13:20:26.886Z,10.800
2022-11-04T13:21:19.732Z,10.800
2022-11-04T13:22:25.831Z,10.800
2022-11-04T13:23:33.407Z,10.800
2022-11-04T13:24:34.905Z,10.800
2022-11-04T13:25:25.583Z,10.800
2022-11-04T13:26:22.694Z,10.800
2022-11-04T13:27:31.160Z,10.800
2022-11-04T13:28:23.573Z,10.800
2022-11-04T13:29:20.202Z,10.800
2022-11-04T13:30:36.724Z,10.800
2022-11-04T13:31:46.624Z,10.800
2022-11-04T13:32:26.686Z,10.800
2022-11-04T13:33:23.092Z,10.800
2022-11-04T13:34:34.110Z,10.800
2022-11-04T13:35:29.554Z,10.800
2022-11-04T13:37:23.320Z,10.700
2022-11-04T13:38:29.151Z,10.600
2022-11-04T13:39:26.648Z,10.600
2022-11-04T13:40:21.672Z,10.600
2022-11-04T13:41:34.374Z,10.600
2022-11-04T13:42:28.757Z,10.600
2022-11-04T13:43:25.620Z,10.600
2022-11-04T13:45:29.327Z,10.600
2022-11-04T13:46:25.540Z,10.600
2022-11-04T13:47:23.697Z,10.600
2022-11-04T13:48:33.761Z,10.600
2022-11-04T13:49:30.633Z,10.600
2022-11-04T13:50:23.610Z,10.600
2022-11-04T13:51:25.684Z,10.600
2022-11-04T13:52:25.977Z,10.600
2022-11-04T13:53:26.511Z,10.600
2022-11-04T13:54:21.017Z,10.600
2022-11-04T13:55:31.015Z,10.600
2022-11-04T13:56:34.275Z,10.600
2022-11-04T13:58:27.999Z,10.500
2022-11-04T13:59:22.838Z,10.500
2022-11-04T14:00:21.392Z,10.500
2022-11-04T14:01:21.331Z,10.500
2022-11-04T14:02:22.555Z,10.500
2022-11-04T14:03:33.524Z,10.500
2022-11-04T14:04:23.108Z,10.500
2022-11-04T14:08:21.974Z,10.500
2022-11-04T14:09:27.291Z,10.500
2022-11-04T14:10:29.765Z,10.500
2022-11-04T14:11:24.281Z,10.500
2022-11-04T14:12:36.336Z,10.500
2022-11-04T14:14:23.604Z,10.500
2022-11-04T14:15:21.509Z,10.500
2022-11-04T14:16:27.668Z,10.400
2022-11-04T14:17:28.287Z,10.400
2022-11-04T14:18:22.955Z,10.400
2022-11-04T14:19:38.535Z,10.400
2022-11-04T14:20:24.531Z,10.400
2022-11-04T14:21:25.975Z,10.400
2022-11-04T14:22:21.650Z,10.400
2022-11-04T14:23:32.683Z,10.400
2022-11-04T14:24:27.584Z,10.300
2022-11-04T14:25:24.398Z,10.400
2022-11-04T14:26:34.527Z,10.300
2022-11-04T14:27:25.807Z,10.400
2022-11-04T14:28:25.395Z,10.300
2022-11-04T14:29:24.688Z,10.300
2022-11-04T14:31:28.212Z,10.300
2022-11-04T14:32:25.420Z,10.300
2022-11-04T14:33:20.633Z,10.300
2022-11-04T14:34:29.790Z,10.300
2022-11-04T14:35:27.356Z,10.300
2022-11-04T14:36:24.334Z,10.300
2022-11-04T14:37:32.783Z,10.300
2022-11-04T14:38:23.926Z,10.300
2022-11-04T14:39:24.192Z,10.300
2022-11-04T14:40:20.431Z,10.300
2022-11-04T14:41:33.419Z,10.300
2022-11-04T14:42:20.188Z,10.300
2022-11-04T14:43:24.714Z,10.300
2022-11-04T14:44:25.320Z,10.300
2022-11-04T14:45:22.836Z,10.300
2022-11-04T14:46:24.375Z,10.300